Time;durP1;ratioP1;P1;durP2;ratioP2;P2;SDS_P1;SDS_P2;PMS_P1;PMS_P2;Temp;Humidity;BMP_temperature;BMP_pressure;BME280_temperature;BME280_humidity;BME280_pressure;Samples;Min_cycle;Max_cycle;Signal;HPM_P1;HPM_P2
2021/09/27 00:01:03;;;;;;;1.48;1.38;;;18.70;58.50;;;;;;4975693;28;20153;-81
2021/09/27 00:03:28;;;;;;;1.42;1.33;;;18.70;58.50;;;;;;4958513;28;20157;-81
2021/09/27 00:05:54;;;;;;;1.40;1.30;;;18.70;58.40;;;;;;4958675;28;20234;-81
2021/09/27 00:08:20;;;;;;;1.60;1.50;;;18.70;58.40;;;;;;4975263;28;20265;-81
2021/09/27 00:10:50;;;;;;;2.03;1.70;;;18.70;58.40;;;;;;4975822;28;20173;-81
2021/09/27 00:13:16;;;;;;;3.00;1.40;;;18.80;58.50;;;;;;4958502;28;20156;-81
2021/09/27 00:15:44;;;;;;;1.83;1.50;;;18.70;58.30;;;;;;4975668;28;20192;-81
2021/09/27 00:18:10;;;;;;;1.42;1.33;;;18.70;58.40;;;;;;4958139;28;20164;-81
2021/09/27 00:20:39;;;;;;;1.50;1.40;;;18.70;58.50;;;;;;4975620;28;20526;-81
2021/09/27 00:23:05;;;;;;;1.52;1.35;;;18.70;58.50;;;;;;4958258;28;20191;-81
2021/09/27 00:25:30;;;;;;;1.40;1.30;;;18.70;58.50;;;;;;4975571;28;20612;-81
2021/09/27 00:27:56;;;;;;;2.17;1.35;;;18.70;58.50;;;;;;4975533;28;20169;-81
2021/09/27 00:30:22;;;;;;;1.75;1.60;;;18.70;58.50;;;;;;4975425;28;20491;-81
2021/09/27 00:32:48;;;;;;;2.47;1.35;;;18.70;58.50;;;;;;4957943;28;20164;-81
2021/09/27 00:35:18;;;;;;;1.45;1.35;;;18.60;58.50;;;;;;4974909;28;20601;-81
2021/09/27 00:37:44;;;;;;;1.38;1.27;;;18.70;58.50;;;;;;4974962;28;20165;-82
2021/09/27 00:40:12;;;;;;;1.92;1.67;;;18.70;58.50;;;;;;4975331;28;20164;-81
2021/09/27 00:42:37;;;;;;;2.28;1.35;;;18.70;58.60;;;;;;4958496;28;20169;-81
2021/09/27 00:45:04;;;;;;;1.38;1.27;;;18.70;58.70;;;;;;4975280;28;20156;-81
2021/09/27 00:47:30;;;;;;;1.40;1.30;;;18.70;58.70;;;;;;4941914;28;20156;-81
2021/09/27 00:49:55;;;;;;;1.40;1.30;;;18.70;58.60;;;;;;4975106;28;20247;-81
2021/09/27 00:52:21;;;;;;;1.83;1.73;;;18.70;58.70;;;;;;4975198;28;20631;-81
2021/09/27 00:54:47;;;;;;;1.55;1.45;;;18.70;58.70;;;;;;4974926;28;20317;-81
2021/09/27 00:57:16;;;;;;;1.50;1.40;;;18.70;58.60;;;;;;4957688;28;20175;-81
2021/09/27 00:59:43;;;;;;;1.70;1.60;;;18.60;58.70;;;;;;4958197;28;20243;-81
2021/09/27 01:02:09;;;;;;;2.00;1.60;;;18.70;58.60;;;;;;4957477;28;20658;-82
2021/09/27 01:04:35;;;;;;;1.73;1.38;;;18.70;58.70;;;;;;4957541;28;20165;-81
2021/09/27 01:07:29;;;;;;;1.52;1.42;;;18.60;58.60;;;;;;4954360;28;20221;-81
2021/09/27 01:10:30;;;;;;;1.60;1.48;;;18.70;58.60;;;;;;4955937;28;20150;-81
2021/09/27 01:13:10;;;;;;;1.45;1.35;;;18.70;58.70;;;;;;4954381;29;20175;-81
2021/09/27 01:15:55;;;;;;;2.33;1.30;;;18.60;58.70;;;;;;4958004;29;20165;-81
2021/09/27 01:18:46;;;;;;;3.55;1.50;;;18.60;58.60;;;;;;4959420;29;20244;-81
2021/09/27 01:21:32;;;;;;;1.60;1.50;;;18.70;58.70;;;;;;4958707;29;20212;-81
2021/09/27 01:24:22;;;;;;;1.70;1.50;;;18.60;58.80;;;;;;4957995;29;20272;-81
2021/09/27 01:27:08;;;;;;;1.65;1.55;;;18.60;58.70;;;;;;4959397;28;20216;-81
2021/09/27 01:30:11;;;;;;;1.85;1.38;;;18.70;58.80;;;;;;4959356;28;20177;-81
2021/09/27 01:32:52;;;;;;;1.65;1.55;;;18.60;58.90;;;;;;4959562;28;20688;-81
2021/09/27 01:35:41;;;;;;;1.42;1.33;;;18.60;58.80;;;;;;4958851;28;20595;-81
2021/09/27 01:38:25;;;;;;;1.48;1.38;;;18.60;58.90;;;;;;4958982;28;20180;-81
2021/09/27 01:41:12;;;;;;;1.77;1.58;;;18.50;59.00;;;;;;4958958;28;20612;-81
2021/09/27 01:44:11;;;;;;;2.17;1.45;;;18.60;59.00;;;;;;4958175;29;20735;-81
2021/09/27 01:46:49;;;;;;;1.50;1.40;;;18.60;58.90;;;;;;4958655;28;20173;-81
2021/09/27 01:49:23;;;;;;;1.70;1.60;;;18.60;58.90;;;;;;4957804;29;20728;-81
2021/09/27 01:51:59;;;;;;;1.88;1.58;;;18.60;58.90;;;;;;4957446;29;20553;-81
2021/09/27 01:54:42;;;;;;;1.40;1.30;;;18.60;58.90;;;;;;4958847;28;20248;-81
2021/09/27 01:57:22;;;;;;;1.55;1.40;;;18.60;58.90;;;;;;4958693;28;20264;-81
2021/09/27 02:00:10;;;;;;;1.50;1.35;;;18.60;58.90;;;;;;4958636;29;20169;-81
2021/09/27 02:02:50;;;;;;;1.50;1.40;;;18.60;59.00;;;;;;4957433;29;20170;-81
2021/09/27 02:05:39;;;;;;;1.50;1.40;;;18.60;58.90;;;;;;4958320;28;20243;-81
2021/09/27 02:08:08;;;;;;;2.00;1.48;;;18.60;59.00;;;;;;4972006;28;20224;-81
2021/09/27 02:10:53;;;;;;;1.30;1.20;;;18.60;59.00;;;;;;4977682;28;20161;-81
2021/09/27 02:13:27;;;;;;;1.60;1.50;;;18.50;59.00;;;;;;4946735;28;20161;-81
2021/09/27 02:16:07;;;;;;;1.88;1.65;;;18.60;59.10;;;;;;4960674;28;20242;-81
2021/09/27 02:18:48;;;;;;;1.75;1.50;;;18.50;59.10;;;;;;4960178;28;20205;-81
2021/09/27 02:21:17;;;;;;;2.50;1.65;;;18.50;59.10;;;;;;4977501;28;20509;-81
2021/09/27 02:24:02;;;;;;;1.30;1.20;;;18.50;59.10;;;;;;4960561;28;20164;-81
2021/09/27 02:26:28;;;;;;;1.65;1.50;;;18.50;59.20;;;;;;4945066;28;20164;-81
2021/09/27 02:28:54;;;;;;;1.80;1.45;;;18.50;59.10;;;;;;4977674;28;20161;-81
2021/09/27 02:31:37;;;;;;;1.95;1.75;;;18.50;59.20;;;;;;4960139;28;20242;-81
2021/09/27 02:34:18;;;;;;;1.50;1.40;;;18.50;59.30;;;;;;4977536;28;20219;-81
2021/09/27 02:36:52;;;;;;;1.45;1.35;;;18.50;59.30;;;;;;4977171;28;20252;-81
2021/09/27 02:39:37;;;;;;;1.70;1.60;;;18.50;59.20;;;;;;4960142;28;20607;-81
2021/09/27 02:42:07;;;;;;;2.25;1.35;;;18.50;59.30;;;;;;4977339;28;20160;-81
2021/09/27 02:44:33;;;;;;;1.40;1.30;;;18.50;59.40;;;;;;4959910;28;20231;-81
2021/09/27 02:46:58;;;;;;;1.35;1.25;;;18.50;59.40;;;;;;4960087;28;20588;-81
2021/09/27 02:49:28;;;;;;;1.55;1.45;;;18.50;59.30;;;;;;4960217;28;20176;-81
2021/09/27 02:51:55;;;;;;;1.70;1.60;;;18.40;59.30;;;;;;4960112;28;20219;-81
2021/09/27 02:54:46;;;;;;;2.00;1.52;;;18.50;59.40;;;;;;4959430;28;20196;-81
2021/09/27 02:57:46;;;;;;;1.80;1.38;;;18.40;59.30;;;;;;4961689;28;20569;-81
2021/09/27 03:00:18;;;;;;;2.58;1.50;;;18.50;59.40;;;;;;4976684;28;20173;-81
2021/09/27 03:03:07;;;;;;;1.35;1.25;;;18.40;59.40;;;;;;4977069;28;20161;-81
2021/09/27 03:05:56;;;;;;;1.70;1.60;;;18.40;59.40;;;;;;4963412;28;20192;-81
2021/09/27 03:08:47;;;;;;;1.35;1.25;;;18.40;60.20;;;;;;4977318;28;20230;-81
2021/09/27 03:11:36;;;;;;;1.50;1.40;;;18.40;59.60;;;;;;4978336;28;20156;-81
2021/09/27 03:14:27;;;;;;;1.50;1.40;;;18.40;59.60;;;;;;4977333;28;20640;-81
2021/09/27 03:16:59;;;;;;;1.83;1.70;;;18.40;59.70;;;;;;4977544;28;20160;-81
2021/09/27 03:19:51;;;;;;;1.48;1.33;;;18.40;59.70;;;;;;4960952;28;20156;-81
2021/09/27 03:22:32;;;;;;;1.50;1.40;;;18.40;59.70;;;;;;4959942;28;20667;-81
2021/09/27 03:25:08;;;;;;;1.50;1.40;;;18.40;59.70;;;;;;4977329;28;20161;-81
2021/09/27 03:27:58;;;;;;;1.95;1.60;;;18.40;59.70;;;;;;4960420;28;20516;-81
2021/09/27 03:30:43;;;;;;;1.52;1.42;;;18.40;59.70;;;;;;4977245;28;20214;-81
2021/09/27 03:33:28;;;;;;;1.60;1.50;;;18.40;59.70;;;;;;4960263;28;20156;-81
2021/09/27 03:36:18;;;;;;;1.90;1.77;;;18.40;59.70;;;;;;4962180;28;20658;-81
2021/09/27 03:39:19;;;;;;;2.13;1.30;;;18.40;59.70;;;;;;4976939;28;20171;-81
2021/09/27 03:41:50;;;;;;;1.50;1.40;;;18.40;59.70;;;;;;4964752;28;20197;-81
2021/09/27 03:44:34;;;;;;;1.50;1.40;;;18.40;59.70;;;;;;4959858;28;20156;-81
2021/09/27 03:47:06;;;;;;;1.42;1.33;;;18.40;59.70;;;;;;4959678;28;20156;-81
2021/09/27 03:49:53;;;;;;;1.52;1.42;;;18.40;59.70;;;;;;4960530;28;20153;-81
2021/09/27 03:52:26;;;;;;;1.83;1.50;;;18.40;59.70;;;;;;4960534;28;20168;-81
2021/09/27 03:54:58;;;;;;;1.52;1.42;;;18.40;59.70;;;;;;4977417;28;20188;-81
2021/09/27 03:57:36;;;;;;;1.52;1.40;;;18.40;59.80;;;;;;4959990;28;20169;-81
2021/09/27 04:00:08;;;;;;;1.40;1.30;;;18.40;59.80;;;;;;4960151;28;20176;-81
2021/09/27 04:03:10;;;;;;;1.40;1.30;;;18.40;59.80;;;;;;4959884;28;20539;-81
2021/09/27 04:05:55;;;;;;;1.30;1.20;;;18.40;59.80;;;;;;4976963;28;20164;-81
2021/09/27 04:08:29;;;;;;;1.63;1.45;;;18.40;59.80;;;;;;4959212;28;20263;-82
2021/09/27 04:11:31;;;;;;;1.70;1.60;;;18.30;59.80;;;;;;4976755;28;20159;-81
2021/09/27 04:14:21;;;;;;;1.63;1.40;;;18.40;59.70;;;;;;4977198;28;20196;-81
2021/09/27 04:17:06;;;;;;;1.50;1.40;;;18.40;59.80;;;;;;4946797;28;20185;-81
2021/09/27 04:19:53;;;;;;;1.60;1.50;;;18.40;59.60;;;;;;4959573;28;20157;-81
2021/09/27 04:22:32;;;;;;;1.58;1.45;;;18.40;59.90;;;;;;4975714;28;20232;-81
2021/09/27 04:25:12;;;;;;;1.40;1.30;;;18.40;59.80;;;;;;4945367;28;20623;-81
2021/09/27 04:28:12;;;;;;;1.33;1.23;;;18.40;59.60;;;;;;4976235;28;20152;-81
2021/09/27 04:31:12;;;;;;;1.30;1.20;;;18.40;59.70;;;;;;4976783;28;20157;-81
2021/09/27 04:34:02;;;;;;;1.30;1.20;;;18.40;59.70;;;;;;4976670;28;20639;-81
2021/09/27 04:36:30;;;;;;;1.60;1.50;;;18.40;59.70;;;;;;4976644;28;20153;-81
2021/09/27 04:38:57;;;;;;;1.40;1.30;;;18.40;59.60;;;;;;4942853;28;20156;-81
2021/09/27 04:42:02;;;;;;;1.65;1.30;;;18.40;59.60;;;;;;4959278;28;20607;-81
2021/09/27 04:44:42;;;;;;;1.52;1.40;;;18.40;59.60;;;;;;4976603;28;20212;-81
2021/09/27 04:47:33;;;;;;;1.45;1.35;;;18.40;59.60;;;;;;4976436;28;20156;-81
2021/09/27 04:50:30;;;;;;;1.38;1.27;;;18.40;59.80;;;;;;4975782;28;20153;-81
2021/09/27 04:53:13;;;;;;;2.17;1.25;;;18.40;59.60;;;;;;4962320;28;20666;-81
2021/09/27 04:56:03;;;;;;;1.30;1.20;;;18.40;59.80;;;;;;4961398;28;20165;-81
2021/09/27 04:58:50;;;;;;;1.38;1.27;;;18.40;59.70;;;;;;4977058;28;20161;-81
2021/09/27 05:01:33;;;;;;;1.27;1.17;;;18.40;59.80;;;;;;4976688;28;20148;-81
2021/09/27 05:04:24;;;;;;;1.40;1.30;;;18.40;59.60;;;;;;4976412;28;20559;-81
2021/09/27 05:07:14;;;;;;;1.05;1.05;;;18.30;59.70;;;;;;4959048;28;20310;-81
2021/09/27 05:09:52;;;;;;;1.30;1.20;;;18.40;59.70;;;;;;4975707;28;20567;-81
2021/09/27 05:12:44;;;;;;;1.15;1.00;;;18.40;59.60;;;;;;4975736;28;20156;-82
2021/09/27 05:15:19;;;;;;;1.65;1.40;;;18.40;59.80;;;;;;4975280;28;20193;-81
2021/09/27 05:18:24;;;;;;;1.50;1.30;;;18.40;59.80;;;;;;4975721;28;20235;-81
2021/09/27 05:21:03;;;;;;;1.67;1.25;;;18.40;59.90;;;;;;4963918;28;20168;-81
2021/09/27 05:24:02;;;;;;;1.23;1.13;;;18.40;59.70;;;;;;4957778;28;20573;-81
2021/09/27 05:26:48;;;;;;;1.17;1.10;;;18.40;60.00;;;;;;4962260;28;20152;-81
2021/09/27 05:29:35;;;;;;;1.75;1.30;;;18.40;59.90;;;;;;4974276;28;20161;-81
2021/09/27 05:32:12;;;;;;;1.40;1.30;;;18.40;60.00;;;;;;4974244;28;20164;-82
2021/09/27 05:35:02;;;;;;;1.20;1.10;;;18.30;59.90;;;;;;4974006;28;20185;-81
2021/09/27 05:37:39;;;;;;;1.23;1.10;;;18.40;59.80;;;;;;4956885;28;20608;-81
2021/09/27 05:40:27;;;;;;;1.30;1.20;;;18.40;60.00;;;;;;4956788;28;20179;-81
2021/09/27 05:43:15;;;;;;;1.48;1.38;;;18.40;59.80;;;;;;4975872;28;20158;-81
2021/09/27 05:46:06;;;;;;;1.30;1.20;;;18.40;59.90;;;;;;4976219;28;20158;-82
2021/09/27 05:48:39;;;;;;;1.13;1.02;;;18.40;59.90;;;;;;4975424;28;20596;-82
2021/09/27 05:51:11;;;;;;;1.50;1.40;;;18.40;59.70;;;;;;4975857;28;20165;-81
2021/09/27 05:53:55;;;;;;;1.20;1.10;;;18.40;59.70;;;;;;4974212;28;20651;-81
2021/09/27 05:56:45;;;;;;;1.30;1.10;;;18.50;59.70;;;;;;4975814;28;20161;-82
2021/09/27 05:59:20;;;;;;;1.00;1.00;;;18.50;59.70;;;;;;4974959;28;20157;-82
2021/09/27 06:02:15;;;;;;;1.15;1.05;;;18.50;59.70;;;;;;4961245;28;20159;-82
2021/09/27 06:05:00;;;;;;;1.75;1.20;;;18.50;59.70;;;;;;4978577;28;20567;-81
2021/09/27 06:07:33;;;;;;;1.20;1.10;;;18.50;59.70;;;;;;4978605;28;20224;-82
2021/09/27 06:10:11;;;;;;;1.02;1.00;;;18.50;59.70;;;;;;4979475;28;20193;-81
2021/09/27 06:13:05;;;;;;;1.92;1.00;;;18.50;59.70;;;;;;4978722;28;20199;-82
2021/09/27 06:15:46;;;;;;;1.73;1.20;;;18.50;59.70;;;;;;4972828;28;20185;-82
2021/09/27 06:18:46;;;;;;;1.35;1.20;;;18.50;59.60;;;;;;4948585;29;20165;-83
2021/09/27 06:21:46;;;;;;;1.17;1.08;;;18.60;59.80;;;;;;4966822;28;20628;-87
2021/09/27 06:24:24;;;;;;;1.27;1.10;;;18.60;59.70;;;;;;4952982;28;20177;-84
2021/09/27 06:26:58;;;;;;;2.20;1.20;;;18.60;59.80;;;;;;4965774;28;20184;-85
2021/09/27 06:29:37;;;;;;;0.95;0.95;;;18.60;59.80;;;;;;4967908;28;20247;-87
2021/09/27 06:32:38;;;;;;;1.40;1.30;;;18.60;60.00;;;;;;4870117;29;20188;-88
2021/09/27 06:35:11;;;;;;;1.17;1.05;;;18.60;59.80;;;;;;4847540;29;20320;-87
2021/09/27 06:37:38;;;;;;;2.30;1.10;;;18.60;59.80;;;;;;4808787;29;20219;-85
2021/09/27 06:40:06;;;;;;;1.45;1.30;;;18.60;59.90;;;;;;4827967;29;20568;-85
2021/09/27 06:42:32;;;;;;;1.52;1.00;;;18.60;60.00;;;;;;4811412;29;20186;-87
2021/09/27 06:44:58;;;;;;;1.38;1.27;;;18.60;59.80;;;;;;4828979;29;20200;-84
2021/09/27 06:47:24;;;;;;;1.15;1.05;;;18.60;59.80;;;;;;4825362;29;20185;-83
2021/09/27 06:49:50;;;;;;;1.27;1.17;;;18.70;59.80;;;;;;4809200;29;20246;-87
2021/09/27 06:52:17;;;;;;;1.23;0.90;;;18.70;59.80;;;;;;4813157;29;20586;-79
2021/09/27 06:54:44;;;;;;;1.20;1.10;;;18.60;60.10;;;;;;4830316;29;20390;-78
2021/09/27 06:57:10;;;;;;;1.73;0.98;;;18.70;60.00;;;;;;4828782;29;20257;-79
2021/09/27 06:59:36;;;;;;;1.92;1.00;;;18.80;59.80;;;;;;4832126;29;20623;-79
2021/09/27 07:02:02;;;;;;;1.38;1.00;;;18.80;59.60;;;;;;4825928;29;20272;-81
2021/09/27 07:04:28;;;;;;;2.67;1.13;;;18.80;59.80;;;;;;4926779;29;20163;-80
2021/09/27 07:06:53;;;;;;;1.20;1.10;;;18.80;59.60;;;;;;4954655;28;20279;-79
2021/09/27 07:09:21;;;;;;;1.35;1.25;;;18.80;59.60;;;;;;4959623;29;20166;-80
2021/09/27 07:11:47;;;;;;;1.10;1.00;;;18.90;59.60;;;;;;4961430;28;20154;-80
2021/09/27 07:14:13;;;;;;;1.23;1.00;;;18.80;59.60;;;;;;4966015;28;20200;-80
2021/09/27 07:16:38;;;;;;;1.10;1.00;;;18.80;59.80;;;;;;4963641;29;20157;-81
2021/09/27 07:19:05;;;;;;;2.53;1.15;;;18.80;59.80;;;;;;4959533;29;20244;-82
2021/09/27 07:21:32;;;;;;;1.20;1.00;;;18.80;59.70;;;;;;4959999;28;20162;-80
2021/09/27 07:23:57;;;;;;;2.45;1.02;;;18.70;59.80;;;;;;4960811;28;20169;-81
2021/09/27 07:26:23;;;;;;;1.10;0.98;;;18.80;59.90;;;;;;4958520;29;20530;-80
2021/09/27 07:28:53;;;;;;;1.33;1.10;;;18.80;59.80;;;;;;4957027;29;20576;-82
2021/09/27 07:31:20;;;;;;;1.23;1.10;;;18.80;59.80;;;;;;4957108;28;20181;-81
2021/09/27 07:33:47;;;;;;;2.63;0.90;;;18.80;59.90;;;;;;4939549;29;20621;-80
2021/09/27 07:36:13;;;;;;;1.00;0.90;;;18.80;59.70;;;;;;4940330;29;20162;-81
2021/09/27 07:38:39;;;;;;;1.27;1.17;;;18.80;59.80;;;;;;4958278;29;20239;-81
2021/09/27 07:41:05;;;;;;;1.60;1.15;;;18.90;59.80;;;;;;4958517;29;20247;-81
2021/09/27 07:43:30;;;;;;;1.50;0.90;;;18.90;60.10;;;;;;4958299;28;20193;-82
2021/09/27 07:45:56;;;;;;;2.20;1.17;;;18.90;60.00;;;;;;4957496;28;20168;-82
2021/09/27 07:48:23;;;;;;;1.40;1.02;;;18.90;60.00;;;;;;4957132;29;20194;-81
2021/09/27 07:50:50;;;;;;;2.17;1.10;;;18.90;60.20;;;;;;4956415;29;20170;-80
2021/09/27 07:53:16;;;;;;;1.98;1.00;;;18.90;60.30;;;;;;4956743;28;20154;-81
2021/09/27 07:55:43;;;;;;;1.15;1.00;;;18.90;60.20;;;;;;4956729;28;20651;-81
2021/09/27 07:58:09;;;;;;;1.20;1.10;;;18.90;60.10;;;;;;4955303;29;20257;-81
2021/09/27 08:00:35;;;;;;;1.30;1.20;;;19.00;59.90;;;;;;4955285;28;20170;-80
2021/09/27 08:03:01;;;;;;;1.85;1.05;;;19.00;60.00;;;;;;4956280;29;20165;-82
2021/09/27 08:05:30;;;;;;;1.08;1.00;;;18.90;60.10;;;;;;4958636;28;20596;-81
2021/09/27 08:07:56;;;;;;;1.10;1.00;;;19.00;60.00;;;;;;4955707;29;20248;-82
2021/09/27 08:10:22;;;;;;;1.77;1.20;;;19.00;60.20;;;;;;4957200;28;20192;-81
2021/09/27 08:12:47;;;;;;;1.20;1.08;;;18.90;60.20;;;;;;4959835;28;20248;-81
2021/09/27 08:15:18;;;;;;;2.03;1.00;;;19.00;60.10;;;;;;4960409;28;20225;-81
2021/09/27 08:17:46;;;;;;;3.83;0.80;;;19.00;60.20;;;;;;4957886;29;20177;-81
2021/09/27 08:20:13;;;;;;;2.45;1.10;;;19.00;60.20;;;;;;4961918;28;20153;-80
2021/09/27 08:22:39;;;;;;;1.10;1.00;;;19.00;60.50;;;;;;4955502;28;20180;-81
2021/09/27 08:25:05;;;;;;;1.50;1.25;;;19.10;60.50;;;;;;4957645;29;20612;-82
2021/09/27 08:27:31;;;;;;;1.40;1.10;;;19.10;60.20;;;;;;4957411;28;20205;-82
2021/09/27 08:29:56;;;;;;;1.38;1.15;;;19.00;60.40;;;;;;4957197;29;20166;-82
2021/09/27 08:32:22;;;;;;;0.85;0.80;;;19.10;60.30;;;;;;4941049;29;20162;-82
2021/09/27 08:34:51;;;;;;;1.88;1.00;;;19.10;60.60;;;;;;4937507;29;20193;-81
2021/09/27 08:37:18;;;;;;;1.58;1.05;;;19.10;60.40;;;;;;4937409;29;20222;-81
2021/09/27 08:39:46;;;;;;;1.15;1.02;;;19.10;60.60;;;;;;4958092;29;20348;-81
2021/09/27 08:42:22;;;;;;;4.18;1.23;;;19.10;60.30;;;;;;4958087;29;20203;-81
2021/09/27 08:44:50;;;;;;;2.15;1.17;;;19.10;60.70;;;;;;4948182;29;20655;-79
2021/09/27 08:47:29;;;;;;;1.70;1.23;;;19.10;60.70;;;;;;4960742;29;20153;-80
2021/09/27 08:50:31;;;;;;;1.67;1.15;;;19.10;60.90;;;;;;4947375;29;20177;-81
2021/09/27 08:53:04;;;;;;;1.30;1.00;;;19.10;60.70;;;;;;4924826;29;20248;-83
2021/09/27 08:55:30;;;;;;;2.78;1.00;;;19.10;60.80;;;;;;4904149;29;20187;-81
2021/09/27 08:58:07;;;;;;;2.30;1.00;;;19.10;61.10;;;;;;4903535;29;20155;-81
2021/09/27 09:00:41;;;;;;;3.13;1.20;;;19.20;61.00;;;;;;4888643;29;20259;-80
2021/09/27 09:03:19;;;;;;;1.50;1.02;;;19.10;61.10;;;;;;4906414;29;20292;-80
2021/09/27 09:05:50;;;;;;;2.55;1.00;;;19.20;61.20;;;;;;4934621;29;20218;-80
2021/09/27 09:08:27;;;;;;;1.30;1.10;;;19.20;61.10;;;;;;4926991;29;20221;-79
2021/09/27 09:10:59;;;;;;;1.08;0.98;;;19.10;61.00;;;;;;4911845;29;20172;-79
2021/09/27 09:13:29;;;;;;;1.48;0.95;;;19.20;61.20;;;;;;4917104;29;20806;-79
2021/09/27 09:16:01;;;;;;;2.72;1.10;;;19.20;61.20;;;;;;4919212;29;20181;-79
2021/09/27 09:18:31;;;;;;;2.20;0.95;;;19.10;61.40;;;;;;4941768;29;20610;-80
2021/09/27 09:21:04;;;;;;;2.42;0.90;;;19.10;61.40;;;;;;4940423;29;20166;-82
2021/09/27 09:23:37;;;;;;;2.38;1.30;;;19.10;61.50;;;;;;4956914;29;20189;-80
2021/09/27 09:26:06;;;;;;;1.45;1.10;;;19.20;61.70;;;;;;4967051;28;20177;-80
2021/09/27 09:28:33;;;;;;;1.65;1.05;;;19.20;61.40;;;;;;4967741;28;20280;-80
2021/09/27 09:31:05;;;;;;;1.42;1.02;;;19.20;61.40;;;;;;4968136;28;20220;-80
2021/09/27 09:33:49;;;;;;;3.25;1.00;;;19.20;61.40;;;;;;4967727;28;20165;-80
2021/09/27 09:36:22;;;;;;;2.00;1.10;;;19.20;61.40;;;;;;4969013;28;20161;-82
2021/09/27 09:38:55;;;;;;;2.30;1.10;;;19.10;61.30;;;;;;4970726;29;20169;-80
2021/09/27 09:41:21;;;;;;;0.93;0.90;;;19.10;61.40;;;;;;4971457;28;20647;-80
2021/09/27 09:43:49;;;;;;;1.25;1.15;;;19.10;61.30;;;;;;4965523;28;20201;-82
2021/09/27 09:46:28;;;;;;;0.90;0.80;;;19.20;61.20;;;;;;4968732;28;20185;-81
2021/09/27 09:49:08;;;;;;;1.08;0.98;;;19.10;61.40;;;;;;4966429;29;20544;-79
2021/09/27 09:51:45;;;;;;;1.95;1.02;;;19.10;61.40;;;;;;4966902;28;20165;-81
2021/09/27 09:54:18;;;;;;;2.30;1.02;;;19.10;61.40;;;;;;4967160;28;20193;-80
2021/09/27 09:56:48;;;;;;;1.27;1.10;;;19.10;61.50;;;;;;4967054;29;20153;-80
2021/09/27 09:59:17;;;;;;;1.20;1.00;;;19.10;61.30;;;;;;4966362;29;20169;-80
2021/09/27 10:01:42;;;;;;;1.10;1.00;;;19.10;61.20;;;;;;4966107;28;20158;-82
2021/09/27 10:04:12;;;;;;;1.15;1.05;;;19.10;61.40;;;;;;4961396;29;20257;-80
2021/09/27 10:07:05;;;;;;;2.60;1.20;;;19.10;61.30;;;;;;4956206;28;20251;-80
2021/09/27 10:09:34;;;;;;;2.72;1.50;;;19.00;61.30;;;;;;4980641;28;20652;-79
2021/09/27 10:12:21;;;;;;;1.70;1.10;;;19.10;61.40;;;;;;4961908;28;20153;-81
2021/09/27 10:14:47;;;;;;;1.52;1.00;;;19.10;61.20;;;;;;4962861;28;20234;-80
2021/09/27 10:17:29;;;;;;;1.48;1.38;;;19.10;61.20;;;;;;4981780;28;20172;-79
2021/09/27 10:20:09;;;;;;;2.60;1.02;;;19.10;61.40;;;;;;4980426;28;20188;-81
2021/09/27 10:22:39;;;;;;;2.17;1.10;;;19.10;61.40;;;;;;4945656;28;20642;-79
2021/09/27 10:25:25;;;;;;;1.85;1.20;;;19.10;61.20;;;;;;4983701;28;20173;-80
2021/09/27 10:27:51;;;;;;;2.13;1.20;;;19.10;61.40;;;;;;4966518;28;20188;-80
2021/09/27 10:30:22;;;;;;;1.20;1.10;;;19.10;61.50;;;;;;4962998;28;20157;-81
2021/09/27 10:32:51;;;;;;;1.40;0.90;;;19.00;61.60;;;;;;4980921;28;20224;-82
2021/09/27 10:35:29;;;;;;;1.10;1.00;;;19.00;61.50;;;;;;4980080;28;20197;-82
2021/09/27 10:38:03;;;;;;;3.33;1.00;;;19.00;61.50;;;;;;4978243;28;20161;-82
2021/09/27 10:40:28;;;;;;;2.40;1.10;;;19.00;61.60;;;;;;4979772;28;20153;-81
2021/09/27 10:42:54;;;;;;;1.13;1.02;;;19.10;61.50;;;;;;4977424;28;20280;-80
2021/09/27 10:45:21;;;;;;;1.17;1.00;;;19.10;61.50;;;;;;4976851;28;20168;-81
2021/09/27 10:47:50;;;;;;;1.20;1.10;;;19.10;61.20;;;;;;4976317;28;20153;-81
2021/09/27 10:50:30;;;;;;;1.20;0.90;;;19.10;61.40;;;;;;4943888;28;20166;-80
2021/09/27 10:53:04;;;;;;;1.10;0.90;;;19.10;61.40;;;;;;4960874;28;20180;-79
2021/09/27 10:55:50;;;;;;;1.13;1.00;;;19.10;61.40;;;;;;4976418;28;20189;-80
2021/09/27 10:58:40;;;;;;;1.58;1.20;;;19.10;61.20;;;;;;4959213;28;20242;-81
2021/09/27 11:01:07;;;;;;;1.75;0.90;;;19.10;61.20;;;;;;4959140;28;20626;-80
2021/09/27 11:03:40;;;;;;;2.65;1.00;;;19.10;61.10;;;;;;4959226;28;20145;-80
2021/09/27 11:06:19;;;;;;;1.17;1.02;;;19.10;61.20;;;;;;4976269;28;20157;-80
2021/09/27 11:08:55;;;;;;;1.50;1.08;;;19.10;61.10;;;;;;4976171;28;20224;-80
2021/09/27 11:11:37;;;;;;;1.63;1.05;;;19.10;61.40;;;;;;4976129;28;20165;-80
2021/09/27 11:14:21;;;;;;;1.05;1.00;;;19.10;61.30;;;;;;4958798;28;20200;-79
2021/09/27 11:16:53;;;;;;;0.95;0.90;;;19.10;61.20;;;;;;4958946;28;20157;-79
2021/09/27 11:19:35;;;;;;;1.23;0.90;;;19.10;61.10;;;;;;4943070;28;20172;-80
2021/09/27 11:22:38;;;;;;;0.80;0.80;;;19.10;61.20;;;;;;4958944;28;20195;-80
2021/09/27 11:25:11;;;;;;;1.75;1.20;;;19.10;61.20;;;;;;4976206;28;20259;-80
2021/09/27 11:27:37;;;;;;;0.98;0.88;;;19.10;61.20;;;;;;4960126;28;20153;-81
2021/09/27 11:30:22;;;;;;;1.70;1.10;;;19.10;61.30;;;;;;4959701;28;20232;-81
2021/09/27 11:32:55;;;;;;;1.10;1.00;;;19.10;61.20;;;;;;4976305;28;20169;-81
2021/09/27 11:35:39;;;;;;;1.80;1.08;;;19.10;61.20;;;;;;4978034;28;20707;-79
2021/09/27 11:38:26;;;;;;;1.35;1.00;;;19.10;61.10;;;;;;4960137;28;20161;-80
2021/09/27 11:40:53;;;;;;;1.77;1.00;;;19.10;62.10;;;;;;4975678;28;20157;-79
2021/09/27 11:43:35;;;;;;;1.10;1.00;;;19.10;61.20;;;;;;4952913;29;20696;-79
2021/09/27 11:46:26;;;;;;;1.23;1.15;;;19.10;61.20;;;;;;4940702;29;20496;-79
2021/09/27 11:48:59;;;;;;;0.75;0.75;;;19.10;61.10;;;;;;4943603;29;20154;-79
2021/09/27 11:51:27;;;;;;;3.10;1.10;;;19.10;61.20;;;;;;4957902;29;20228;-80
2021/09/27 11:54:02;;;;;;;1.73;0.98;;;19.10;61.10;;;;;;4939174;29;20248;-80
2021/09/27 11:56:52;;;;;;;0.90;0.90;;;19.10;61.40;;;;;;4939070;29;20161;-80
2021/09/27 11:59:39;;;;;;;1.27;0.93;;;19.10;61.10;;;;;;4948749;29;20185;-81
2021/09/27 12:02:33;;;;;;;1.00;0.90;;;19.10;61.00;;;;;;4958599;29;20260;-81
2021/09/27 12:05:24;;;;;;;2.25;1.02;;;19.10;60.30;;;;;;4958343;28;20208;-80
2021/09/27 12:08:01;;;;;;;1.38;0.82;;;19.10;60.70;;;;;;4960806;28;20695;-82
2021/09/27 12:10:32;;;;;;;2.00;1.20;;;19.10;60.70;;;;;;4964433;28;20163;-80
2021/09/27 12:13:01;;;;;;;1.20;1.10;;;19.20;60.70;;;;;;4984535;28;20294;-79
2021/09/27 12:15:30;;;;;;;1.58;1.25;;;19.20;60.60;;;;;;4941506;28;20610;-79
2021/09/27 12:17:56;;;;;;;1.55;1.10;;;19.20;60.50;;;;;;4974220;28;20161;-81
2021/09/27 12:20:26;;;;;;;1.25;1.15;;;19.20;60.50;;;;;;4960542;28;20299;-80
2021/09/27 12:22:54;;;;;;;2.35;1.15;;;19.20;60.40;;;;;;4979708;28;20187;-80
2021/09/27 12:25:26;;;;;;;3.17;1.00;;;19.30;60.10;;;;;;4974561;28;20235;-79
2021/09/27 12:27:55;;;;;;;1.10;1.00;;;19.30;60.10;;;;;;4957838;28;20153;-78
